Time;durP1;ratioP1;P1;durP2;ratioP2;P2;SDS_P1;SDS_P2;PMS_P1;PMS_P2;Temp;Humidity;BMP_temperature;BMP_pressure;BME280_temperature;BME280_humidity;BME280_pressure;Samples;Min_cycle;Max_cycle;Signal;HPM_P1;HPM_P2
2021/08/24 00:01:47;;;;;;;5.00;2.40;;;;;;;19.18;54.50;102619.09;4873889;28;113802;-66
2021/08/24 00:04:15;;;;;;;3.85;2.55;;;;;;;19.14;54.49;102617.53;4865108;28;124916;-66
2021/08/24 00:06:42;;;;;;;4.05;2.47;;;;;;;19.09;54.47;102620.44;4868086;28;124797;-66
2021/08/24 00:09:09;;;;;;;3.72;2.42;;;;;;;19.06;54.50;102620.59;4866440;28;114913;-66
2021/08/24 00:11:36;;;;;;;5.72;2.75;;;;;;;19.02;54.86;102619.03;4868059;28;113919;-66
2021/08/24 00:14:06;;;;;;;4.32;2.55;;;;;;;19.00;54.75;102615.56;4862784;28;124152;-66
2021/08/24 00:16:34;;;;;;;6.05;2.47;;;;;;;18.98;54.67;102622.81;4869928;28;125459;-66
2021/08/24 00:19:01;;;;;;;4.15;2.30;;;;;;;18.95;54.84;102621.19;4860049;28;114997;-66
2021/08/24 00:21:29;;;;;;;4.68;2.55;;;;;;;18.92;54.87;102618.66;4863922;28;114754;-66
2021/08/24 00:23:56;;;;;;;5.35;2.60;;;;;;;18.89;54.78;102624.16;4873871;28;124429;-66
2021/08/24 00:26:23;;;;;;;4.82;2.67;;;;;;;18.85;54.82;102628.84;4871830;28;124710;-66
2021/08/24 00:28:50;;;;;;;3.92;2.58;;;;;;;18.82;54.98;102622.78;4863018;28;114252;-66
2021/08/24 00:31:17;;;;;;;5.32;2.75;;;;;;;18.78;55.18;102627.38;4837735;28;113163;-66
2021/08/24 00:33:44;;;;;;;3.92;2.60;;;;;;;18.75;55.14;102622.16;4848491;28;123882;-66
2021/08/24 00:36:17;;;;;;;3.78;2.47;;;;;;;18.71;55.12;102627.78;4871043;28;123761;-66
2021/08/24 00:38:44;;;;;;;4.47;2.58;;;;;;;18.67;55.01;102619.03;4871201;28;114604;-66
2021/08/24 00:41:12;;;;;;;3.90;2.60;;;;;;;18.64;55.37;102619.16;4859955;28;113190;-66
2021/08/24 00:43:42;;;;;;;5.07;2.53;;;;;;;18.61;55.12;102624.66;4866453;28;123795;-66
2021/08/24 00:46:32;;;;;;;4.75;2.80;;;;;;;18.57;55.28;102625.78;4866827;28;123828;-66
2021/08/24 00:49:04;;;;;;;4.38;2.92;;;;;;;18.53;55.37;102626.88;4856764;28;114940;-67
2021/08/24 00:51:37;;;;;;;4.13;2.58;;;;;;;18.49;55.65;102635.06;4870425;28;112988;-67
2021/08/24 00:54:10;;;;;;;4.82;2.83;;;;;;;18.46;55.57;102643.31;4861329;28;124168;-67
2021/08/24 00:56:38;;;;;;;5.50;3.08;;;;;;;18.43;55.53;102638.06;4854912;28;124675;-66
2021/08/24 00:59:07;;;;;;;4.50;2.72;;;;;;;18.41;55.53;102629.22;4864672;28;114583;-66
2021/08/24 01:01:34;;;;;;;5.53;2.63;;;;;;;18.38;55.71;102634.75;4871719;28;114368;-66
2021/08/24 01:04:02;;;;;;;6.05;3.17;;;;;;;18.35;55.63;102640.28;4870289;28;124662;-66
2021/08/24 01:06:52;;;;;;;6.60;2.80;;;;;;;18.32;55.83;102628.81;4862829;28;123820;-66
2021/08/24 01:09:47;;;;;;;7.50;2.92;;;;;;;18.27;55.58;102631.72;4865719;28;115336;-67
2021/08/24 01:12:51;;;;;;;5.70;2.90;;;;;;;18.24;55.79;102629.22;4860735;28;114797;-67
2021/08/24 01:15:35;;;;;;;4.05;2.60;;;;;;;18.20;55.90;102630.31;4863067;28;124006;-66
2021/08/24 01:18:29;;;;;;;4.63;3.17;;;;;;;18.17;55.85;102625.06;4861645;28;124264;-66
2021/08/24 01:21:05;;;;;;;5.05;2.75;;;;;;;18.15;55.86;102627.81;4851511;28;113485;-66
2021/08/24 01:24:08;;;;;;;8.75;2.97;;;;;;;18.14;56.11;102630.56;4853621;28;113982;-66
2021/08/24 01:26:53;;;;;;;4.95;2.83;;;;;;;18.09;55.88;102629.00;4851370;28;124078;-66
2021/08/24 01:30:00;;;;;;;6.70;2.93;;;;;;;18.06;55.92;102634.53;4864285;28;124285;-66
2021/08/24 01:32:47;;;;;;;5.43;3.15;;;;;;;18.01;56.07;102631.19;4851756;28;114316;-66
2021/08/24 01:35:23;;;;;;;4.57;2.88;;;;;;;17.99;56.28;102633.06;4848688;28;113148;-66
2021/08/24 01:38:23;;;;;;;6.80;3.08;;;;;;;17.93;56.16;102627.97;4860049;28;124006;-66
2021/08/24 01:41:21;;;;;;;4.28;2.67;;;;;;;17.92;56.34;102636.97;4844565;28;123016;-66
2021/08/24 01:44:02;;;;;;;4.03;2.67;;;;;;;17.90;56.26;102633.50;4852035;28;114157;-66
2021/08/24 01:47:01;;;;;;;5.25;2.97;;;;;;;17.88;56.01;102640.75;4866695;28;113836;-66
2021/08/24 01:49:45;;;;;;;5.00;2.88;;;;;;;17.86;56.09;102643.50;4838969;28;124471;-66
2021/08/24 01:52:20;;;;;;;4.90;3.08;;;;;;;17.83;56.32;102638.25;4863092;28;123033;-66
2021/08/24 01:54:51;;;;;;;4.97;2.80;;;;;;;17.81;56.50;102633.91;4857154;28;114824;-67
2021/08/24 01:57:26;;;;;;;5.20;2.70;;;;;;;17.79;56.48;102638.47;4871115;28;114568;-66
2021/08/24 01:59:59;;;;;;;4.68;3.00;;;;;;;17.77;56.39;102637.69;4845377;28;123463;-66
2021/08/24 02:02:34;;;;;;;4.82;3.00;;;;;;;17.74;56.38;102638.66;4865059;28;124683;-66
2021/08/24 02:05:08;;;;;;;;;;;;;;;17.69;56.14;102641.56;4862600;28;115146;-66
2021/08/24 02:07:35;;;;;;;4.90;2.65;;;;;;;17.69;56.39;102641.56;4861486;28;115270;-66
2021/08/24 02:10:09;;;;;;;5.35;3.13;;;;;;;17.66;56.58;102636.34;4868855;28;124342;-66
2021/08/24 02:12:39;;;;;;;4.18;3.00;;;;;;;17.64;56.65;102643.59;4855218;28;123886;-66
2021/08/24 02:15:07;;;;;;;5.03;3.05;;;;;;;17.64;56.65;102643.59;4861561;28;114127;-66
2021/08/24 02:17:35;;;;;;;4.60;2.97;;;;;;;17.63;56.62;102647.22;4865651;28;114479;-66
2021/08/24 02:20:15;;;;;;;4.50;2.90;;;;;;;17.61;56.66;102643.75;4859440;28;123968;-66
2021/08/24 02:22:44;;;;;;;5.00;2.92;;;;;;;17.60;56.66;102652.72;4860417;28;124514;-66
2021/08/24 02:25:16;;;;;;;4.78;3.15;;;;;;;17.58;56.82;102653.75;4867866;28;114620;-66
2021/08/24 02:27:56;;;;;;;5.18;3.13;;;;;;;17.55;56.80;102654.72;4867432;28;114081;-66
2021/08/24 02:30:26;;;;;;;5.50;3.00;;;;;;;17.54;56.69;102646.75;4862165;28;98530;-66
2021/08/24 02:32:54;;;;;;;6.32;3.58;;;;;;;17.50;56.89;102652.28;4873089;23;123001;-76
2021/08/24 02:35:29;;;;;;;4.60;3.05;;;;;;;17.49;56.90;102655.88;4873739;28;114239;-76
2021/08/24 02:38:09;;;;;;;5.43;3.10;;;;;;;17.48;57.01;102653.28;4865369;28;114280;-75
2021/08/24 02:40:41;;;;;;;4.80;3.00;;;;;;;17.50;57.07;102654.09;4855343;28;124631;-74
2021/08/24 02:43:32;;;;;;;7.47;3.25;;;;;;;17.47;57.08;102656.91;4870051;28;125929;-74
2021/08/24 02:46:07;;;;;;;5.25;3.00;;;;;;;17.45;57.04;102656.09;4850032;28;113913;-74
2021/08/24 02:48:37;;;;;;;4.75;2.97;;;;;;;17.44;57.01;102657.03;4858714;28;113965;-74
2021/08/24 02:51:05;;;;;;;4.78;2.70;;;;;;;17.42;56.99;102664.25;4863786;28;123925;-74
2021/08/24 02:53:34;;;;;;;4.72;2.95;;;;;;;17.42;57.30;102658.91;4861566;28;124586;-74
2021/08/24 02:56:01;;;;;;;5.53;3.05;;;;;;;17.42;57.16;102658.91;4861214;28;115159;-74
2021/08/24 02:58:28;;;;;;;5.40;2.78;;;;;;;17.42;57.07;102664.25;4849145;28;115952;-74
2021/08/24 03:00:55;;;;;;;5.47;2.90;;;;;;;17.41;57.16;102662.53;4842278;28;123427;-74
2021/08/24 03:03:22;;;;;;;6.03;3.28;;;;;;;17.39;57.29;102659.06;4860368;28;124083;-74
2021/08/24 03:05:49;;;;;;;3.97;2.65;;;;;;;17.37;57.31;102661.81;4862347;28;114597;-74
2021/08/24 03:08:16;;;;;;;5.55;3.00;;;;;;;17.38;57.26;102668.03;4847515;28;113885;-75
2021/08/24 03:10:46;;;;;;;4.15;2.60;;;;;;;17.34;57.12;102661.06;4861696;28;124101;-77
2021/08/24 03:13:48;;;;;;;6.68;3.08;;;;;;;17.32;57.33;102659.31;4866790;28;124141;-74
2021/08/24 03:16:31;;;;;;;4.95;2.97;;;;;;;17.29;57.47;102666.59;4850998;28;112499;-77
2021/08/24 03:19:03;;;;;;;5.70;3.28;;;;;;;17.26;57.41;102656.91;4864720;28;113830;-77
2021/08/24 03:21:34;;;;;;;5.22;3.00;;;;;;;17.26;57.43;102653.38;4849256;28;123821;-77
2021/08/24 03:24:03;;;;;;;5.28;3.10;;;;;;;17.24;57.56;102656.13;4862701;28;123914;-77
2021/08/24 03:26:34;;;;;;;5.60;3.15;;;;;;;17.24;57.70;102666.81;4845338;28;114326;-77
2021/08/24 03:29:10;;;;;;;6.03;3.17;;;;;;;17.22;57.49;102652.63;4839821;28;113791;-76
2021/08/24 03:31:39;;;;;;;4.32;3.30;;;;;;;17.21;57.70;102666.94;4861173;28;124405;-77
2021/08/24 03:34:07;;;;;;;4.45;2.88;;;;;;;17.21;57.72;102666.94;4862093;28;124524;-77
2021/08/24 03:36:34;;;;;;;7.80;3.58;;;;;;;17.20;57.67;102665.22;4863327;28;114655;-77
2021/08/24 03:39:02;;;;;;;5.35;3.15;;;;;;;17.21;57.70;102661.59;4862417;28;114265;-76
2021/08/24 03:41:29;;;;;;;5.18;3.00;;;;;;;17.21;57.86;102666.09;4864641;28;124816;-76
2021/08/24 03:43:56;;;;;;;5.63;3.28;;;;;;;17.20;57.90;102665.22;4850418;28;122872;-77
2021/08/24 03:46:23;;;;;;;5.57;3.33;;;;;;;17.22;57.87;102671.38;4865367;28;115504;-77
2021/08/24 03:48:50;;;;;;;5.65;3.55;;;;;;;17.23;57.81;102670.44;4854761;28;113891;-76
2021/08/24 03:51:17;;;;;;;6.03;3.47;;;;;;;17.23;58.04;102670.44;4851136;28;122857;-76
2021/08/24 03:53:44;;;;;;;6.47;3.55;;;;;;;17.21;58.13;102661.59;4861007;28;123685;-77
2021/08/24 03:56:12;;;;;;;5.05;3.30;;;;;;;17.19;58.10;102679.53;4849274;28;113223;-77
2021/08/24 03:58:40;;;;;;;7.93;3.85;;;;;;;17.19;58.08;102668.81;4862537;28;113711;-76
2021/08/24 04:01:16;;;;;;;6.78;3.63;;;;;;;17.19;58.23;102674.19;4862238;28;123822;-75
2021/08/24 04:03:43;;;;;;;5.28;3.42;;;;;;;17.20;58.09;102675.06;4848611;28;123176;-76
2021/08/24 04:06:10;;;;;;;6.75;3.50;;;;;;;17.18;58.20;102683.16;4854107;28;114018;-76
2021/08/24 04:08:38;;;;;;;7.07;3.70;;;;;;;17.18;58.27;102687.63;4866049;28;114560;-76
2021/08/24 04:11:07;;;;;;;6.28;3.60;;;;;;;17.17;58.29;102692.13;4849443;28;124127;-76
2021/08/24 04:13:35;;;;;;;5.82;3.35;;;;;;;17.17;58.25;102692.13;4858341;28;122344;-76
2021/08/24 04:16:08;;;;;;;7.20;3.85;;;;;;;17.17;58.52;102692.13;4868656;28;114385;-76
2021/08/24 04:18:36;;;;;;;5.50;3.60;;;;;;;17.16;58.51;102690.41;4842491;28;112887;-76
2021/08/24 04:21:10;;;;;;;7.78;4.07;;;;;;;17.15;58.57;102699.34;4863106;28;123547;-77
2021/08/24 04:23:38;;;;;;;8.65;3.70;;;;;;;17.14;58.60;102692.28;4835424;28;124623;-76
2021/08/24 04:26:06;;;;;;;7.03;3.72;;;;;;;17.14;58.59;102697.63;4863889;28;114033;-77
2021/08/24 04:28:33;;;;;;;5.70;3.80;;;;;;;17.15;58.68;102704.72;4843777;28;113712;-77
2021/08/24 04:31:03;;;;;;;8.98;3.90;;;;;;;17.16;58.64;102695.75;4865917;28;124834;-76
2021/08/24 04:33:32;;;;;;;8.18;3.95;;;;;;;17.16;58.63;102695.75;4865681;28;123479;-76
2021/08/24 04:35:59;;;;;;;6.80;4.10;;;;;;;17.18;58.88;102699.25;4857885;28;115515;-76
2021/08/24 04:38:28;;;;;;;7.47;3.70;;;;;;;17.17;58.73;102697.47;4866331;28;114665;-76
2021/08/24 04:40:55;;;;;;;7.85;3.80;;;;;;;17.17;58.86;102705.50;4856030;28;123488;-76
2021/08/24 04:43:22;;;;;;;5.82;3.78;;;;;;;17.18;58.90;102704.59;4854920;28;122916;-76
2021/08/24 04:45:49;;;;;;;9.82;4.18;;;;;;;17.18;58.84;102701.91;4840897;28;113565;-75
2021/08/24 04:48:16;;;;;;;7.13;3.72;;;;;;;17.21;58.72;102703.56;4852282;28;113544;-75
2021/08/24 04:50:44;;;;;;;7.55;4.20;;;;;;;17.21;58.82;102709.78;4841681;28;123140;-76
2021/08/24 04:53:12;;;;;;;7.38;4.15;;;;;;;17.22;59.01;102716.91;4854734;28;124612;-75
2021/08/24 04:55:40;;;;;;;6.85;3.70;;;;;;;17.23;58.87;102718.63;4849091;28;113682;-76
2021/08/24 04:58:07;;;;;;;6.22;3.85;;;;;;;17.25;58.94;102715.88;4867018;28;114212;-75
2021/08/24 05:00:35;;;;;;;7.55;3.85;;;;;;;17.26;58.90;102712.28;4866804;28;125031;-76
2021/08/24 05:03:03;;;;;;;9.40;4.45;;;;;;;17.27;58.99;102712.22;4857340;28;124843;-75
2021/08/24 05:05:30;;;;;;;6.90;3.83;;;;;;;17.30;58.92;102714.75;4852419;28;113816;-75
2021/08/24 05:07:57;;;;;;;6.70;4.15;;;;;;;17.31;58.88;102713.84;4872187;28;114270;-75
2021/08/24 05:10:24;;;;;;;6.30;3.92;;;;;;;17.30;58.81;102717.44;4841550;28;123327;-75
2021/08/24 05:12:52;;;;;;;7.55;4.05;;;;;;;17.31;58.80;102727.22;4869167;28;124086;-75
2021/08/24 05:15:19;;;;;;;7.38;3.95;;;;;;;17.31;58.87;102719.19;4861961;28;114133;-76
2021/08/24 05:17:48;;;;;;;7.30;3.95;;;;;;;17.31;58.80;102727.22;4870346;28;114006;-75
2021/08/24 05:20:18;;;;;;;7.15;4.05;;;;;;;17.34;58.81;102730.69;4839871;28;123489;-76
2021/08/24 05:22:46;;;;;;;8.07;4.30;;;;;;;17.33;58.85;102729.84;4855954;28;123113;-76
2021/08/24 05:25:16;;;;;;;8.98;4.82;;;;;;;17.32;59.12;102728.94;4862274;28;114884;-75
2021/08/24 05:27:43;;;;;;;9.13;4.70;;;;;;;17.33;59.20;102729.84;4834443;28;115168;-75
2021/08/24 05:30:15;;;;;;;6.18;4.25;;;;;;;17.32;59.21;102734.31;4864416;28;123917;-75
2021/08/24 05:32:42;;;;;;;10.13;5.03;;;;;;;17.31;59.30;102732.59;4867416;28;124113;-76
2021/08/24 05:35:09;;;;;;;7.93;4.82;;;;;;;17.34;59.54;102738.75;4869910;28;114346;-75
2021/08/24 05:37:36;;;;;;;9.60;5.15;;;;;;;17.35;59.59;102737.78;4858345;28;113982;-75
2021/08/24 05:40:04;;;;;;;8.02;4.82;;;;;;;17.37;59.75;102735.94;4862548;28;124800;-78
2021/08/24 05:42:31;;;;;;;9.73;5.00;;;;;;;17.38;59.90;102743.03;4867803;28;123667;-76
2021/08/24 05:44:59;;;;;;;7.85;4.95;;;;;;;17.41;60.01;102742.91;4865474;28;114276;-77
2021/08/24 05:47:29;;;;;;;9.45;5.30;;;;;;;17.43;60.32;102741.03;4866428;28;113985;-76
2021/08/24 05:49:59;;;;;;;8.90;5.18;;;;;;;17.46;60.22;102741.75;4862101;28;124026;-77
2021/08/24 05:52:26;;;;;;;8.13;5.25;;;;;;;17.50;60.35;102738.00;4870721;28;123713;-77
2021/08/24 05:54:54;;;;;;;10.43;5.43;;;;;;;17.56;60.39;102736.88;4867296;28;114058;-76
2021/08/24 05:57:21;;;;;;;10.27;5.25;;;;;;;17.59;60.40;102736.69;4864077;28;113784;-76
2021/08/24 05:59:49;;;;;;;12.32;5.05;;;;;;;17.64;60.44;102734.69;4848952;28;124419;-76
2021/08/24 06:02:16;;;;;;;11.88;5.53;;;;;;;17.69;60.64;102732.69;4860747;28;126894;-76
2021/08/24 06:04:43;;;;;;;9.32;5.25;;;;;;;17.74;60.45;102736.97;4862665;28;114556;-76
2021/08/24 06:07:11;;;;;;;8.52;5.75;;;;;;;17.78;60.59;102735.88;4860005;28;114123;-76
2021/08/24 06:09:39;;;;;;;11.95;6.15;;;;;;;17.84;60.65;102741.00;4859475;28;124434;-76
2021/08/24 06:12:07;;;;;;;7.38;4.78;;;;;;;17.89;60.61;102749.72;4857658;28;124022;-76
2021/08/24 06:14:34;;;;;;;10.90;5.55;;;;;;;17.95;60.91;102744.09;4847790;28;114909;-76
2021/08/24 06:17:01;;;;;;;8.90;5.25;;;;;;;18.01;60.73;102743.78;4856875;28;114100;-75
2021/08/24 06:19:29;;;;;;;9.70;5.15;;;;;;;18.07;60.78;102748.00;4853995;28;124560;-76
2021/08/24 06:21:58;;;;;;;9.60;5.50;;;;;;;18.13;60.85;102746.84;4838594;28;122736;-77
2021/08/24 06:24:26;;;;;;;12.07;5.65;;;;;;;18.19;60.98;102749.25;4858272;28;113909;-76
2021/08/24 06:26:54;;;;;;;10.50;5.78;;;;;;;18.24;60.76;102744.53;4846970;28;113098;-76
2021/08/24 06:29:21;;;;;;;10.60;5.53;;;;;;;18.29;60.77;102748.75;4874612;28;123766;-76
2021/08/24 06:31:51;;;;;;;9.93;5.32;;;;;;;18.36;60.92;102749.31;4867093;28;123228;-76
2021/08/24 06:34:21;;;;;;;10.20;5.50;;;;;;;18.42;60.73;102754.41;4873206;28;113833;-77
2021/08/24 06:36:49;;;;;;;9.68;5.88;;;;;;;18.51;60.99;102752.22;4874095;28;114934;-76
2021/08/24 06:39:16;;;;;;;9.48;5.40;;;;;;;18.58;60.84;102753.66;4857159;28;124418;-76
2021/08/24 06:41:43;;;;;;;10.10;5.70;;;;;;;18.65;61.09;102749.75;4873774;28;124247;-76
2021/08/24 06:44:11;;;;;;;10.05;5.40;;;;;;;18.71;60.90;102760.16;4874413;28;116531;-77
2021/08/24 06:46:39;;;;;;;9.85;5.60;;;;;;;18.78;61.21;102761.63;4874489;28;113700;-77
2021/08/24 06:49:07;;;;;;;9.27;5.63;;;;;;;18.86;60.98;102759.44;4868201;28;123849;-76
2021/08/24 06:51:35;;;;;;;10.48;5.35;;;;;;;18.94;60.89;102756.38;4859836;28;123565;-77
2021/08/24 06:54:03;;;;;;;10.00;5.55;;;;;;;19.04;60.91;102751.41;4841959;28;114405;-76
2021/08/24 06:56:33;;;;;;;8.95;5.72;;;;;;;19.11;60.78;102758.22;4856607;28;113982;-76
2021/08/24 06:59:02;;;;;;;10.57;5.78;;;;;;;19.20;60.91;102747.00;4864473;28;123918;-77
2021/08/24 07:01:30;;;;;;;9.07;4.85;;;;;;;19.30;60.92;102757.28;4865948;28;124500;-76
2021/08/24 07:03:58;;;;;;;10.65;5.68;;;;;;;19.36;60.55;102756.94;4873283;28;115557;-76
2021/08/24 07:06:25;;;;;;;11.52;5.40;;;;;;;19.43;60.63;102759.25;4861775;28;114919;-77
2021/08/24 07:08:56;;;;;;;11.30;5.30;;;;;;;19.51;60.31;102756.16;4873637;28;123841;-76
2021/08/24 07:11:28;;;;;;;7.60;4.85;;;;;;;19.59;60.41;102759.31;4859944;28;123755;-76
2021/08/24 07:13:57;;;;;;;9.82;5.30;;;;;;;19.70;60.72;102749.81;4861621;28;113157;-76
2021/08/24 07:16:26;;;;;;;9.02;5.57;;;;;;;19.83;60.57;102756.31;4845131;29;113859;-77
2021/08/24 07:18:55;;;;;;;8.68;5.00;;;;;;;19.97;60.29;102759.13;4870792;28;124181;-77
2021/08/24 07:21:25;;;;;;;9.32;5.80;;;;;;;20.13;60.13;102752.91;4869247;28;124595;-76
2021/08/24 07:23:53;;;;;;;8.23;5.25;;;;;;;20.24;59.66;102761.25;4856386;28;113954;-76
2021/08/24 07:26:20;;;;;;;9.75;5.05;;;;;;;20.36;59.51;102755.19;4857220;28;113496;-76
2021/08/24 07:28:48;;;;;;;9.93;5.10;;;;;;;20.46;59.31;102754.69;4861470;28;123912;-77
2021/08/24 07:31:15;;;;;;;9.05;5.03;;;;;;;20.54;58.90;102757.78;4848461;28;122750;-76
2021/08/24 07:33:43;;;;;;;9.20;5.03;;;;;;;20.61;58.60;102753.84;4870203;28;114792;-77
2021/08/24 07:36:11;;;;;;;9.85;5.20;;;;;;;20.69;58.42;102761.47;4856781;28;113311;-76
2021/08/24 07:38:39;;;;;;;8.27;5.15;;;;;;;20.75;58.32;102761.97;4874881;28;124555;-76
2021/08/24 07:41:06;;;;;;;8.73;5.03;;;;;;;20.85;58.36;102761.44;4876675;28;123767;-76
2021/08/24 07:43:34;;;;;;;9.10;5.07;;;;;;;20.95;58.10;102762.66;4858873;28;113157;-76
2021/08/24 07:46:01;;;;;;;10.73;4.90;;;;;;;21.05;57.99;102761.16;4875961;28;114254;-76
2021/08/24 07:48:28;;;;;;;7.82;4.93;;;;;;;21.16;58.07;102761.38;4858014;28;124889;-76
2021/08/24 07:50:56;;;;;;;10.45;5.40;;;;;;;21.31;57.95;102769.53;4876217;28;123726;-76
2021/08/24 07:53:24;;;;;;;8.00;4.47;;;;;;;21.45;57.81;102771.41;4859081;28;114933;-76
2021/08/24 07:55:51;;;;;;;8.00;4.63;;;;;;;21.56;57.45;102769.78;4859597;28;114797;-76
2021/08/24 07:58:18;;;;;;;6.72;4.53;;;;;;;21.69;57.22;102764.50;4876554;28;123894;-76
2021/08/24 08:00:45;;;;;;;10.30;5.32;;;;;;;21.79;57.13;102770.19;4858654;28;123605;-76
2021/08/24 08:03:13;;;;;;;8.48;4.72;;;;;;;21.89;56.94;102771.38;4875691;28;114598;-76
2021/08/24 08:05:40;;;;;;;7.70;4.72;;;;;;;22.01;56.71;102763.47;4859555;28;113448;-76
2021/08/24 08:08:07;;;;;;;6.78;4.32;;;;;;;22.10;56.55;102768.31;4857679;28;123757;-76
2021/08/24 08:10:38;;;;;;;7.68;4.43;;;;;;;22.17;56.09;102769.66;4865579;28;123694;-76
2021/08/24 08:13:06;;;;;;;8.32;4.70;;;;;;;22.26;56.11;102769.06;4863640;28;114111;-76
2021/08/24 08:15:34;;;;;;;6.72;4.50;;;;;;;22.34;56.20;102772.16;4853029;28;113748;-76
2021/08/24 08:18:05;;;;;;;8.07;4.78;;;;;;;22.43;55.79;102775.22;4874790;28;124140;-76
2021/08/24 08:20:32;;;;;;;7.63;4.53;;;;;;;22.51;55.65;102772.91;4876474;28;123774;-76
2021/08/24 08:23:03;;;;;;;8.38;4.40;;;;;;;22.58;55.28;102779.63;4859059;28;114183;-76
2021/08/24 08:25:30;;;;;;;6.10;4.10;;;;;;;22.63;55.03;102772.09;4867541;28;115239;-76
2021/08/24 08:27:59;;;;;;;7.03;4.43;;;;;;;22.68;54.89;102774.50;4865464;28;124150;-76
2021/08/24 08:30:29;;;;;;;6.07;3.83;;;;;;;22.72;54.68;102776.03;4855396;28;123011;-76
2021/08/24 08:32:59;;;;;;;7.25;4.30;;;;;;;22.77;54.46;102778.41;4851493;28;113816;-76
2021/08/24 08:35:27;;;;;;;8.38;4.72;;;;;;;22.81;54.46;102772.72;4883583;23;115236;-67
2021/08/24 08:37:55;;;;;;;7.32;4.30;;;;;;;22.87;54.66;102774.16;4825904;28;123651;-69
2021/08/24 08:40:53;;;;;;;7.10;4.00;;;;;;;22.94;54.60;102770.03;4838063;29;122589;-70
2021/08/24 08:43:48;;;;;;;6.10;4.35;;;;;;;23.00;54.18;102769.66;4826324;28;114835;-67
2021/08/24 08:46:30;;;;;;;7.70;4.57;;;;;;;23.04;53.96;102773.06;4823153;29;115134;-67
2021/08/24 08:49:35;;;;;;;7.22;4.40;;;;;;;23.06;53.75;102774.66;4842775;28;123944;-67
2021/08/24 08:52:24;;;;;;;7.28;4.72;;;;;;;23.10;53.85;102784.31;4847621;28;123888;-67
2021/08/24 08:54:57;;;;;;;10.00;3.90;;;;;;;23.12;53.79;102771.53;4847192;28;114369;-68
2021/08/24 08:57:41;;;;;;;6.63;4.43;;;;;;;23.17;53.64;102775.78;4849881;29;113842;-67
2021/08/24 09:00:15;;;;;;;6.75;4.13;;;;;;;23.24;53.37;102787.91;4855933;28;126952;-68
2021/08/24 09:03:08;;;;;;;5.65;4.07;;;;;;;23.30;53.22;102779.38;4853098;28;123828;-67
2021/08/24 09:05:37;;;;;;;6.57;4.57;;;;;;;23.35;53.32;102773.66;4836242;29;114618;-70
2021/08/24 09:08:04;;;;;;;7.93;4.85;;;;;;;23.40;53.13;102772.38;4855664;28;113969;-70
2021/08/24 09:10:41;;;;;;;6.70;4.05;;;;;;;23.44;53.08;102773.88;4840009;29;124571;-70
2021/08/24 09:13:31;;;;;;;7.75;4.45;;;;;;;23.49;52.74;102770.88;4844803;29;123926;-68
2021/08/24 09:16:26;;;;;;;5.82;4.15;;;;;;;23.56;52.85;102768.59;4845555;28;114658;-68
2021/08/24 09:18:59;;;;;;;6.15;3.88;;;;;;;23.63;52.89;102767.19;4854340;28;114275;-68
2021/08/24 09:21:33;;;;;;;8.02;4.15;;;;;;;23.71;52.33;102771.09;4839728;28;124021;-69
2021/08/24 09:24:26;;;;;;;6.75;4.10;;;;;;;23.79;52.61;102762.47;4838671;28;123522;-69
2021/08/24 09:27:18;;;;;;;6.43;3.95;;;;;;;23.86;52.08;102763.75;4856094;28;114391;-68
2021/08/24 09:29:49;;;;;;;7.63;4.18;;;;;;;23.93;51.76;102763.34;4827494;29;114275;-69
2021/08/24 09:32:21;;;;;;;6.30;4.00;;;;;;;23.98;51.51;102763.84;4855372;28;124037;-68
2021/08/24 09:34:50;;;;;;;7.80;4.05;;;;;;;24.02;51.54;102762.69;4854838;28;123855;-69
2021/08/24 09:37:20;;;;;;;6.20;4.25;;;;;;;24.09;51.91;102774.78;4854848;29;115370;-69
2021/08/24 09:40:00;;;;;;;6.32;3.40;;;;;;;24.16;51.05;102765.22;4842310;29;114819;-69
2021/08/24 09:42:31;;;;;;;6.28;3.72;;;;;;;24.20;50.96;102765.88;4841276;28;124347;-69
2021/08/24 09:45:02;;;;;;;7.38;3.90;;;;;;;24.22;50.67;102772.06;4847546;28;124744;-68
2021/08/24 09:47:30;;;;;;;3.70;2.28;;;;;;;24.24;50.45;102761.97;4856172;28;114751;-68
2021/08/24 09:50:13;;;;;;;5.35;2.78;;;;;;;24.26;49.96;102766.31;4849212;29;114112;-68
2021/08/24 09:52:48;;;;;;;4.53;2.95;;;;;;;24.34;49.91;102775.72;4840555;28;123899;-69
2021/08/24 09:55:27;;;;;;;6.93;3.45;;;;;;;24.41;49.96;102774.28;4828876;29;123955;-69
2021/08/24 09:58:00;;;;;;;6.20;3.72;;;;;;;24.49;50.46;102758.34;4842237;28;114268;-69
2021/08/24 10:00:58;;;;;;;7.22;3.40;;;;;;;24.59;50.13;102756.69;4843369;29;113146;-69
2021/08/24 10:03:30;;;;;;;5.68;3.35;;;;;;;24.67;49.91;102765.09;4835826;28;124006;-69
2021/08/24 10:06:22;;;;;;;6.45;3.45;;;;;;;24.73;49.80;102758.38;4851926;28;124562;-69
2021/08/24 10:08:56;;;;;;;4.97;2.90;;;;;;;24.81;49.46;102765.94;4847228;28;114788;-68
2021/08/24 10:11:32;;;;;;;3.95;2.50;;;;;;;24.85;49.28;102756.59;4853711;28;113931;-69
2021/08/24 10:14:22;;;;;;;3.92;2.63;;;;;;;24.88;49.08;102745.50;4838978;28;123031;-69
2021/08/24 10:16:58;;;;;;;4.63;2.88;;;;;;;24.92;48.53;102752.44;4838990;28;123704;-69
2021/08/24 10:19:39;;;;;;;8.05;3.88;;;;;;;24.97;48.26;102750.22;4851816;28;113268;-69
2021/08/24 10:22:15;;;;;;;9.55;3.83;;;;;;;25.04;48.28;102746.06;4850379;29;114317;-68
2021/08/24 10:24:59;;;;;;;16.15;6.18;;;;;;;25.09;48.18;102742.13;4835102;29;123267;-69
2021/08/24 10:27:39;;;;;;;10.02;3.83;;;;;;;25.10;48.12;102744.75;4852179;29;124298;-69
2021/08/24 10:30:11;;;;;;;5.53;2.92;;;;;;;25.11;47.67;102745.59;4839359;28;115853;-69
2021/08/24 10:32:56;;;;;;;6.07;3.38;;;;;;;25.14;47.73;102739.94;4823784;29;114846;-69
2021/08/24 10:35:27;;;;;;;6.45;2.95;;;;;;;25.17;47.42;102739.72;4856203;28;126135;-69
2021/08/24 10:37:55;;;;;;;3.90;2.72;;;;;;;25.21;46.90;102746.63;4854762;28;124103;-69
2021/08/24 10:40:29;;;;;;;4.88;2.58;;;;;;;25.21;46.39;102743.91;4856698;28;114541;-69
2021/08/24 10:43:14;;;;;;;4.07;2.47;;;;;;;25.21;46.88;102742.06;4839939;29;114083;-69
2021/08/24 10:46:01;;;;;;;4.00;2.10;;;;;;;25.24;46.19;102735.56;4833053;29;124633;-69
2021/08/24 10:48:33;;;;;;;4.15;2.15;;;;;;;25.28;46.10;102737.06;4838605;28;122887;-69
2021/08/24 10:51:17;;;;;;;3.78;2.22;;;;;;;25.32;45.94;102737.69;4856830;28;114665;-69
2021/08/24 10:54:13;;;;;;;3.85;2.28;;;;;;;25.33;45.46;102734.84;4853906;28;114303;-69
2021/08/24 10:57:06;;;;;;;3.35;2.13;;;;;;;25.35;45.42;102732.88;4838723;29;123313;-69
2021/08/24 10:59:45;;;;;;;4.07;2.40;;;;;;;25.39;44.97;102734.38;4828054;29;123392;-68
2021/08/24 11:02:28;;;;;;;3.13;1.92;;;;;;;25.43;43.83;102722.31;4848249;29;114430;-69
2021/08/24 11:05:02;;;;;;;4.07;2.50;;;;;;;25.44;43.86;102726.72;4847767;29;115810;-69
2021/08/24 11:07:47;;;;;;;4.97;2.67;;;;;;;25.47;44.10;102724.75;4849675;29;123974;-69
2021/08/24 11:10:37;;;;;;;4.47;2.50;;;;;;;25.52;44.72;102727.97;4847135;28;123370;-69
2021/08/24 11:13:06;;;;;;;6.20;2.28;;;;;;;25.60;43.71;102725.53;4849273;28;114360;-69
2021/08/24 11:15:42;;;;;;;3.47;2.08;;;;;;;25.66;43.49;102719.63;4833448;28;112871;-69
2021/08/24 11:18:25;;;;;;;5.45;2.17;;;;;;;25.69;42.95;102719.34;4847622;29;124153;-70
2021/08/24 11:21:17;;;;;;;4.25;1.98;;;;;;;25.72;42.23;102724.56;4850380;28;123877;-69
2021/08/24 11:23:59;;;;;;;5.25;2.20;;;;;;;25.74;42.75;102721.72;4852474;28;114507;-69
2021/08/24 11:26:35;;;;;;;3.42;2.00;;;;;;;25.77;41.40;102714.19;4854313;29;115217;-69
2021/08/24 11:29:15;;;;;;;3.53;2.20;;;;;;;25.78;40.88;102715.91;4848240;28;124075;-68
2021/08/24 11:31:58;;;;;;;3.60;1.77;;;;;;;25.78;41.30;102715.91;4849167;28;123925;-69
2021/08/24 11:34:37;;;;;;;4.53;1.63;;;;;;;25.82;40.78;102714.69;4847030;28;114299;-66
2021/08/24 11:37:12;;;;;;;5.25;1.67;;;;;;;25.89;41.46;102706.06;4854031;28;115159;-66
2021/08/24 11:39:48;;;;;;;5.38;2.00;;;;;;;25.97;41.61;102706.31;4856004;29;124220;-66
2021/08/24 11:42:26;;;;;;;3.67;1.67;;;;;;;26.06;40.95;102700.13;4835556;29;123619;-66
2021/08/24 11:44:56;;;;;;;2.40;1.60;;;;;;;26.12;40.68;102699.63;4847271;29;114527;-66